sensor_id;sensor_type;location;lat;lon;timestamp;P1;durP1;ratioP1;P2;durP2;ratioP2
31390;SDS011;18022;45.492;11.548;2023-09-18T00:00:48;12.10;;;10.90;;
31390;SDS011;18022;45.492;11.548;2023-09-18T00:03:20;11.75;;;10.55;;
31390;SDS011;18022;45.492;11.548;2023-09-18T00:05:49;12.80;;;11.07;;
31390;SDS011;18022;45.492;11.548;2023-09-18T00:08:16;12.40;;;11.15;;
31390;SDS011;18022;45.492;11.548;2023-09-18T00:10:43;12.95;;;11.65;;
31390;SDS011;18022;45.492;11.548;2023-09-18T00:13:13;14.65;;;11.57;;
31390;SDS011;18022;45.492;11.548;2023-09-18T00:15:39;12.68;;;11.38;;
31390;SDS011;18022;45.492;11.548;2023-09-18T00:18:06;14.30;;;12.87;;
31390;SDS011;18022;45.492;11.548;2023-09-18T00:20:32;13.82;;;12.30;;
31390;SDS011;18022;45.492;11.548;2023-09-18T00:22:58;12.25;;;11.02;;
31390;SDS011;18022;45.492;11.548;2023-09-18T00:25:24;13.38;;;11.38;;
31390;SDS011;18022;45.492;11.548;2023-09-18T00:27:49;13.07;;;11.00;;
31390;SDS011;18022;45.492;11.548;2023-09-18T00:30:17;13.07;;;11.63;;
31390;SDS011;18022;45.492;11.548;2023-09-18T00:32:42;12.88;;;11.57;;
31390;SDS011;18022;45.492;11.548;2023-09-18T00:35:08;21.83;;;12.60;;
31390;SDS011;18022;45.492;11.548;2023-09-18T00:37:34;12.75;;;11.45;;
31390;SDS011;18022;45.492;11.548;2023-09-18T00:40:01;14.45;;;11.85;;
31390;SDS011;18022;45.492;11.548;2023-09-18T00:42:27;14.23;;;12.15;;
31390;SDS011;18022;45.492;11.548;2023-09-18T00:44:53;12.90;;;11.07;;
31390;SDS011;18022;45.492;11.548;2023-09-18T00:47:18;12.38;;;11.07;;
31390;SDS011;18022;45.492;11.548;2023-09-18T00:49:45;14.60;;;12.23;;
31390;SDS011;18022;45.492;11.548;2023-09-18T00:52:14;15.45;;;13.63;;
31390;SDS011;18022;45.492;11.548;2023-09-18T00:54:40;16.03;;;14.10;;
31390;SDS011;18022;45.492;11.548;2023-09-18T00:59:35;15.18;;;13.40;;
31390;SDS011;18022;45.492;11.548;2023-09-18T01:02:01;14.95;;;13.10;;
31390;SDS011;18022;45.492;11.548;2023-09-18T01:04:28;15.77;;;13.70;;
31390;SDS011;18022;45.492;11.548;2023-09-18T01:06:55;16.17;;;12.82;;
31390;SDS011;18022;45.492;11.548;2023-09-18T01:09:23;14.75;;;13.18;;
31390;SDS011;18022;45.492;11.548;2023-09-18T01:12:02;17.73;;;14.30;;
31390;SDS011;18022;45.492;11.548;2023-09-18T01:17:04;15.52;;;13.05;;
31390;SDS011;18022;45.492;11.548;2023-09-18T01:19:36;13.50;;;12.13;;
31390;SDS011;18022;45.492;11.548;2023-09-18T01:22:07;17.42;;;13.73;;
31390;SDS011;18022;45.492;11.548;2023-09-18T01:24:34;16.80;;;13.30;;
31390;SDS011;18022;45.492;11.548;2023-09-18T01:27:01;16.48;;;12.70;;
31390;SDS011;18022;45.492;11.548;2023-09-18T01:29:31;15.43;;;13.63;;
31390;SDS011;18022;45.492;11.548;2023-09-18T01:31:57;15.77;;;13.43;;
31390;SDS011;18022;45.492;11.548;2023-09-18T01:34:27;14.25;;;12.30;;
31390;SDS011;18022;45.492;11.548;2023-09-18T01:36:58;15.27;;;12.93;;
31390;SDS011;18022;45.492;11.548;2023-09-18T01:39:25;14.25;;;12.75;;
31390;SDS011;18022;45.492;11.548;2023-09-18T01:41:57;17.35;;;14.35;;
31390;SDS011;18022;45.492;11.548;2023-09-18T01:44:24;13.95;;;12.45;;
31390;SDS011;18022;45.492;11.548;2023-09-18T01:46:50;18.10;;;13.93;;
31390;SDS011;18022;45.492;11.548;2023-09-18T01:49:26;17.00;;;13.15;;
31390;SDS011;18022;45.492;11.548;2023-09-18T01:51:55;15.15;;;13.55;;
31390;SDS011;18022;45.492;11.548;2023-09-18T01:54:22;15.63;;;13.57;;
31390;SDS011;18022;45.492;11.548;2023-09-18T01:56:48;16.42;;;14.00;;
31390;SDS011;18022;45.492;11.548;2023-09-18T01:59:14;17.27;;;13.73;;
31390;SDS011;18022;45.492;11.548;2023-09-18T02:01:39;16.08;;;13.02;;
31390;SDS011;18022;45.492;11.548;2023-09-18T02:04:05;13.77;;;12.38;;
31390;SDS011;18022;45.492;11.548;2023-09-18T02:06:31;12.98;;;11.57;;
31390;SDS011;18022;45.492;11.548;2023-09-18T02:08:56;13.18;;;10.27;;
31390;SDS011;18022;45.492;11.548;2023-09-18T02:11:22;11.45;;;10.35;;
31390;SDS011;18022;45.492;11.548;2023-09-18T02:13:48;10.25;;;9.25;;
31390;SDS011;18022;45.492;11.548;2023-09-18T02:16:13;10.57;;;9.10;;
31390;SDS011;18022;45.492;11.548;2023-09-18T02:18:39;10.55;;;9.45;;
31390;SDS011;18022;45.492;11.548;2023-09-18T02:21:04;10.77;;;9.73;;
31390;SDS011;18022;45.492;11.548;2023-09-18T02:23:30;10.63;;;9.50;;
31390;SDS011;18022;45.492;11.548;2023-09-18T02:25:59;17.25;;;11.73;;
31390;SDS011;18022;45.492;11.548;2023-09-18T02:28:25;14.27;;;12.80;;
31390;SDS011;18022;45.492;11.548;2023-09-18T02:30:51;14.43;;;12.98;;
31390;SDS011;18022;45.492;11.548;2023-09-18T02:33:17;12.65;;;11.25;;
31390;SDS011;18022;45.492;11.548;2023-09-18T02:35:42;12.27;;;11.07;;
31390;SDS011;18022;45.492;11.548;2023-09-18T02:38:11;16.30;;;12.60;;
31390;SDS011;18022;45.492;11.548;2023-09-18T02:40:36;15.68;;;12.68;;
31390;SDS011;18022;45.492;11.548;2023-09-18T02:43:02;14.43;;;12.05;;
31390;SDS011;18022;45.492;11.548;2023-09-18T02:45:28;14.68;;;13.05;;
31390;SDS011;18022;45.492;11.548;2023-09-18T02:47:53;15.13;;;12.50;;
31390;SDS011;18022;45.492;11.548;2023-09-18T02:50:19;14.88;;;12.10;;
31390;SDS011;18022;45.492;11.548;2023-09-18T02:52:45;17.08;;;13.30;;
31390;SDS011;18022;45.492;11.548;2023-09-18T02:55:10;16.30;;;12.82;;
31390;SDS011;18022;45.492;11.548;2023-09-18T02:57:36;17.33;;;12.95;;
31390;SDS011;18022;45.492;11.548;2023-09-18T03:00:02;17.13;;;13.18;;
31390;SDS011;18022;45.492;11.548;2023-09-18T03:02:28;15.50;;;12.80;;
31390;SDS011;18022;45.492;11.548;2023-09-18T03:04:55;13.05;;;11.75;;
31390;SDS011;18022;45.492;11.548;2023-09-18T03:07:21;14.85;;;13.02;;
31390;SDS011;18022;45.492;11.548;2023-09-18T03:09:47;13.60;;;12.13;;
31390;SDS011;18022;45.492;11.548;2023-09-18T03:12:13;12.85;;;10.40;;
31390;SDS011;18022;45.492;11.548;2023-09-18T03:14:38;13.18;;;9.88;;
31390;SDS011;18022;45.492;11.548;2023-09-18T03:17:04;10.25;;;8.38;;
31390;SDS011;18022;45.492;11.548;2023-09-18T03:19:30;9.75;;;8.77;;
31390;SDS011;18022;45.492;11.548;2023-09-18T03:21:55;9.20;;;8.30;;
31390;SDS011;18022;45.492;11.548;2023-09-18T03:24:21;9.07;;;7.57;;
31390;SDS011;18022;45.492;11.548;2023-09-18T03:26:47;12.32;;;10.52;;
31390;SDS011;18022;45.492;11.548;2023-09-18T03:29:14;11.43;;;10.27;;
31390;SDS011;18022;45.492;11.548;2023-09-18T03:31:40;13.85;;;11.73;;
31390;SDS011;18022;45.492;11.548;2023-09-18T03:34:05;13.13;;;11.70;;
31390;SDS011;18022;45.492;11.548;2023-09-18T03:36:31;19.08;;;14.43;;
31390;SDS011;18022;45.492;11.548;2023-09-18T03:38:57;19.50;;;15.18;;
31390;SDS011;18022;45.492;11.548;2023-09-18T03:41:23;17.70;;;15.43;;
31390;SDS011;18022;45.492;11.548;2023-09-18T03:43:49;20.25;;;14.75;;
31390;SDS011;18022;45.492;11.548;2023-09-18T03:46:15;21.15;;;15.05;;
31390;SDS011;18022;45.492;11.548;2023-09-18T03:48:41;18.25;;;15.65;;
31390;SDS011;18022;45.492;11.548;2023-09-18T03:51:07;21.10;;;15.85;;
31390;SDS011;18022;45.492;11.548;2023-09-18T03:53:33;16.33;;;13.60;;
31390;SDS011;18022;45.492;11.548;2023-09-18T03:55:59;21.02;;;15.02;;
31390;SDS011;18022;45.492;11.548;2023-09-18T03:58:25;21.08;;;14.45;;
31390;SDS011;18022;45.492;11.548;2023-09-18T04:00:51;20.08;;;14.75;;
31390;SDS011;18022;45.492;11.548;2023-09-18T04:03:18;16.67;;;13.85;;
31390;SDS011;18022;45.492;11.548;2023-09-18T04:05:44;16.55;;;14.07;;
31390;SDS011;18022;45.492;11.548;2023-09-18T04:08:09;17.95;;;14.25;;
31390;SDS011;18022;45.492;11.548;2023-09-18T04:10:36;19.83;;;14.07;;
31390;SDS011;18022;45.492;11.548;2023-09-18T04:13:02;18.65;;;14.55;;
31390;SDS011;18022;45.492;11.548;2023-09-18T04:15:28;20.25;;;15.73;;
31390;SDS011;18022;45.492;11.548;2023-09-18T04:17:55;21.17;;;15.65;;
31390;SDS011;18022;45.492;11.548;2023-09-18T04:20:21;19.40;;;15.00;;
31390;SDS011;18022;45.492;11.548;2023-09-18T04:22:50;23.17;;;15.63;;
31390;SDS011;18022;45.492;11.548;2023-09-18T04:25:44;24.63;;;16.55;;
31390;SDS011;18022;45.492;11.548;2023-09-18T04:28:14;23.77;;;16.80;;
31390;SDS011;18022;45.492;11.548;2023-09-18T04:30:41;19.35;;;16.40;;
31390;SDS011;18022;45.492;11.548;2023-09-18T04:33:07;21.40;;;16.98;;
31390;SDS011;18022;45.492;11.548;2023-09-18T04:35:32;23.13;;;16.13;;
31390;SDS011;18022;45.492;11.548;2023-09-18T04:37:58;22.65;;;16.10;;
31390;SDS011;18022;45.492;11.548;2023-09-18T04:40:24;21.50;;;16.00;;
31390;SDS011;18022;45.492;11.548;2023-09-18T04:42:52;20.50;;;15.27;;
31390;SDS011;18022;45.492;11.548;2023-09-18T04:45:18;24.48;;;18.27;;
31390;SDS011;18022;45.492;11.548;2023-09-18T04:47:43;21.90;;;17.48;;
31390;SDS011;18022;45.492;11.548;2023-09-18T04:50:09;23.25;;;16.98;;
31390;SDS011;18022;45.492;11.548;2023-09-18T04:52:35;23.98;;;17.52;;
31390;SDS011;18022;45.492;11.548;2023-09-18T04:55:01;20.10;;;15.80;;
31390;SDS011;18022;45.492;11.548;2023-09-18T04:57:28;22.40;;;16.90;;
31390;SDS011;18022;45.492;11.548;2023-09-18T04:59:53;19.85;;;16.13;;
31390;SDS011;18022;45.492;11.548;2023-09-18T05:02:19;21.13;;;16.35;;
31390;SDS011;18022;45.492;11.548;2023-09-18T05:04:45;24.38;;;15.80;;
31390;SDS011;18022;45.492;11.548;2023-09-18T05:07:10;22.10;;;16.15;;
31390;SDS011;18022;45.492;11.548;2023-09-18T05:09:36;23.08;;;16.27;;
31390;SDS011;18022;45.492;11.548;2023-09-18T05:12:04;20.77;;;16.73;;
31390;SDS011;18022;45.492;11.548;2023-09-18T05:14:33;22.58;;;17.25;;
31390;SDS011;18022;45.492;11.548;2023-09-18T05:16:59;22.85;;;15.88;;
31390;SDS011;18022;45.492;11.548;2023-09-18T05:19:25;22.52;;;16.83;;
31390;SDS011;18022;45.492;11.548;2023-09-18T05:21:50;20.90;;;16.42;;
31390;SDS011;18022;45.492;11.548;2023-09-18T05:24:17;21.55;;;16.13;;
31390;SDS011;18022;45.492;11.548;2023-09-18T05:26:51;20.40;;;16.20;;
31390;SDS011;18022;45.492;11.548;2023-09-18T05:29:18;19.77;;;16.27;;
31390;SDS011;18022;45.492;11.548;2023-09-18T05:31:45;22.73;;;17.10;;
31390;SDS011;18022;45.492;11.548;2023-09-18T05:34:11;17.95;;;15.88;;
31390;SDS011;18022;45.492;11.548;2023-09-18T05:36:37;20.88;;;16.48;;
31390;SDS011;18022;45.492;11.548;2023-09-18T05:39:03;23.35;;;17.10;;
31390;SDS011;18022;45.492;11.548;2023-09-18T05:41:29;23.05;;;17.67;;
31390;SDS011;18022;45.492;11.548;2023-09-18T05:43:56;20.08;;;16.23;;
31390;SDS011;18022;45.492;11.548;2023-09-18T05:46:22;19.73;;;16.03;;
31390;SDS011;18022;45.492;11.548;2023-09-18T05:48:47;21.70;;;17.05;;
31390;SDS011;18022;45.492;11.548;2023-09-18T05:51:13;21.67;;;18.08;;
31390;SDS011;18022;45.492;11.548;2023-09-18T05:53:38;23.17;;;18.10;;
31390;SDS011;18022;45.492;11.548;2023-09-18T05:56:04;23.55;;;15.05;;
31390;SDS011;18022;45.492;11.548;2023-09-18T05:58:33;16.60;;;13.55;;
31390;SDS011;18022;45.492;11.548;2023-09-18T06:01:00;20.25;;;15.55;;
31390;SDS011;18022;45.492;11.548;2023-09-18T06:03:26;20.77;;;17.00;;
31390;SDS011;18022;45.492;11.548;2023-09-18T06:05:55;21.02;;;16.50;;
31390;SDS011;18022;45.492;11.548;2023-09-18T06:08:21;22.63;;;17.27;;
31390;SDS011;18022;45.492;11.548;2023-09-18T06:10:47;22.00;;;17.70;;
31390;SDS011;18022;45.492;11.548;2023-09-18T06:13:13;24.20;;;18.63;;
31390;SDS011;18022;45.492;11.548;2023-09-18T06:15:39;21.58;;;17.48;;
31390;SDS011;18022;45.492;11.548;2023-09-18T06:18:04;23.27;;;17.85;;
31390;SDS011;18022;45.492;11.548;2023-09-18T06:20:31;24.60;;;19.27;;
31390;SDS011;18022;45.492;11.548;2023-09-18T06:22:57;24.67;;;18.52;;
31390;SDS011;18022;45.492;11.548;2023-09-18T06:25:23;24.60;;;19.52;;
31390;SDS011;18022;45.492;11.548;2023-09-18T06:27:49;23.38;;;18.92;;
31390;SDS011;18022;45.492;11.548;2023-09-18T06:30:15;22.60;;;18.15;;
31390;SDS011;18022;45.492;11.548;2023-09-18T06:32:40;25.77;;;19.98;;
31390;SDS011;18022;45.492;11.548;2023-09-18T06:35:06;25.08;;;20.10;;
31390;SDS011;18022;45.492;11.548;2023-09-18T06:37:33;27.25;;;20.70;;
31390;SDS011;18022;45.492;11.548;2023-09-18T06:39:59;28.08;;;19.67;;
31390;SDS011;18022;45.492;11.548;2023-09-18T06:42:24;24.92;;;19.88;;
31390;SDS011;18022;45.492;11.548;2023-09-18T06:44:50;23.77;;;20.25;;
31390;SDS011;18022;45.492;11.548;2023-09-18T06:47:16;26.98;;;19.90;;
31390;SDS011;18022;45.492;11.548;2023-09-18T06:49:41;30.08;;;21.15;;
31390;SDS011;18022;45.492;11.548;2023-09-18T06:52:08;27.33;;;20.42;;
31390;SDS011;18022;45.492;11.548;2023-09-18T06:54:34;28.42;;;22.05;;
31390;SDS011;18022;45.492;11.548;2023-09-18T06:57:01;26.52;;;20.70;;
31390;SDS011;18022;45.492;11.548;2023-09-18T06:59:28;29.65;;;21.20;;
31390;SDS011;18022;45.492;11.548;2023-09-18T07:01:54;27.75;;;22.08;;
31390;SDS011;18022;45.492;11.548;2023-09-18T07:04:21;29.45;;;22.00;;
31390;SDS011;18022;45.492;11.548;2023-09-18T07:06:46;39.92;;;25.27;;
31390;SDS011;18022;45.492;11.548;2023-09-18T07:09:12;33.42;;;24.73;;
31390;SDS011;18022;45.492;11.548;2023-09-18T07:11:38;41.70;;;27.25;;
31390;SDS011;18022;45.492;11.548;2023-09-18T07:14:04;40.53;;;27.15;;
31390;SDS011;18022;45.492;11.548;2023-09-18T07:16:31;38.73;;;25.63;;
31390;SDS011;18022;45.492;11.548;2023-09-18T07:18:58;44.22;;;26.60;;
31390;SDS011;18022;45.492;11.548;2023-09-18T07:21:24;41.72;;;28.42;;
31390;SDS011;18022;45.492;11.548;2023-09-18T07:23:50;50.67;;;30.60;;
31390;SDS011;18022;45.492;11.548;2023-09-18T07:26:16;48.20;;;30.63;;
31390;SDS011;18022;45.492;11.548;2023-09-18T07:28:42;51.42;;;31.42;;
31390;SDS011;18022;45.492;11.548;2023-09-18T07:31:09;59.80;;;32.83;;
31390;SDS011;18022;45.492;11.548;2023-09-18T07:33:37;61.75;;;33.78;;
31390;SDS011;18022;45.492;11.548;2023-09-18T07:36:03;56.80;;;32.22;;
31390;SDS011;18022;45.492;11.548;2023-09-18T07:38:29;60.88;;;33.13;;
31390;SDS011;18022;45.492;11.548;2023-09-18T07:40:55;57.97;;;34.15;;
31390;SDS011;18022;45.492;11.548;2023-09-18T07:43:21;56.38;;;32.95;;
31390;SDS011;18022;45.492;11.548;2023-09-18T07:45:49;58.47;;;32.00;;
31390;SDS011;18022;45.492;11.548;2023-09-18T07:48:15;56.85;;;32.67;;
31390;SDS011;18022;45.492;11.548;2023-09-18T07:50:45;68.97;;;35.25;;
31390;SDS011;18022;45.492;11.548;2023-09-18T07:53:11;58.75;;;33.67;;
31390;SDS011;18022;45.492;11.548;2023-09-18T07:55:37;65.25;;;34.95;;
31390;SDS011;18022;45.492;11.548;2023-09-18T07:58:03;53.90;;;31.67;;
31390;SDS011;18022;45.492;11.548;2023-09-18T08:00:29;55.15;;;32.45;;
31390;SDS011;18022;45.492;11.548;2023-09-18T08:02:55;60.03;;;33.03;;
31390;SDS011;18022;45.492;11.548;2023-09-18T08:05:25;60.83;;;32.08;;
31390;SDS011;18022;45.492;11.548;2023-09-18T08:07:56;61.17;;;34.85;;
31390;SDS011;18022;45.492;11.548;2023-09-18T08:10:24;63.20;;;35.30;;
31390;SDS011;18022;45.492;11.548;2023-09-18T08:12:50;80.22;;;40.10;;
31390;SDS011;18022;45.492;11.548;2023-09-18T08:15:18;75.70;;;37.08;;
31390;SDS011;18022;45.492;11.548;2023-09-18T08:20:11;65.20;;;37.70;;
31390;SDS011;18022;45.492;11.548;2023-09-18T08:22:38;67.85;;;36.83;;
31390;SDS011;18022;45.492;11.548;2023-09-18T08:25:05;73.63;;;38.40;;
31390;SDS011;18022;45.492;11.548;2023-09-18T08:27:36;65.13;;;36.85;;
31390;SDS011;18022;45.492;11.548;2023-09-18T08:30:05;73.57;;;38.83;;
31390;SDS011;18022;45.492;11.548;2023-09-18T08:32:31;65.43;;;38.33;;
31390;SDS011;18022;45.492;11.548;2023-09-18T08:34:59;69.03;;;37.33;;
31390;SDS011;18022;45.492;11.548;2023-09-18T08:39:52;63.58;;;35.10;;
31390;SDS011;18022;45.492;11.548;2023-09-18T08:42:17;69.60;;;34.20;;
31390;SDS011;18022;45.492;11.548;2023-09-18T08:47:13;59.42;;;32.50;;
31390;SDS011;18022;45.492;11.548;2023-09-18T08:49:40;51.83;;;32.67;;
31390;SDS011;18022;45.492;11.548;2023-09-18T08:52:08;53.05;;;33.50;;
31390;SDS011;18022;45.492;11.548;2023-09-18T08:54:34;52.53;;;31.03;;
31390;SDS011;18022;45.492;11.548;2023-09-18T08:57:00;47.55;;;30.30;;
31390;SDS011;18022;45.492;11.548;2023-09-18T08:59:26;46.45;;;31.25;;
31390;SDS011;18022;45.492;11.548;2023-09-18T09:01:52;44.42;;;31.63;;
31390;SDS011;18022;45.492;11.548;2023-09-18T09:04:18;42.60;;;30.00;;
31390;SDS011;18022;45.492;11.548;2023-09-18T09:06:44;41.40;;;30.55;;
31390;SDS011;18022;45.492;11.548;2023-09-18T09:09:10;42.15;;;31.63;;
31390;SDS011;18022;45.492;11.548;2023-09-18T09:11:38;47.00;;;31.13;;
31390;SDS011;18022;45.492;11.548;2023-09-18T09:14:13;38.65;;;28.80;;
31390;SDS011;18022;45.492;11.548;2023-09-18T09:16:55;37.67;;;28.58;;
31390;SDS011;18022;45.492;11.548;2023-09-18T09:19:28;39.00;;;28.88;;
31390;SDS011;18022;45.492;11.548;2023-09-18T09:21:55;39.78;;;29.88;;
31390;SDS011;18022;45.492;11.548;2023-09-18T09:24:37;40.88;;;29.27;;
31390;SDS011;18022;45.492;11.548;2023-09-18T09:27:07;39.38;;;29.55;;
31390;SDS011;18022;45.492;11.548;2023-09-18T09:29:33;36.43;;;28.67;;
31390;SDS011;18022;45.492;11.548;2023-09-18T09:32:15;40.35;;;28.45;;
31390;SDS011;18022;45.492;11.548;2023-09-18T09:34:42;38.08;;;27.52;;
31390;SDS011;18022;45.492;11.548;2023-09-18T09:37:09;37.38;;;27.92;;
31390;SDS011;18022;45.492;11.548;2023-09-18T09:39:45;36.37;;;28.87;;
31390;SDS011;18022;45.492;11.548;2023-09-18T09:42:18;37.03;;;29.25;;
31390;SDS011;18022;45.492;11.548;2023-09-18T09:45:02;36.47;;;27.58;;
31390;SDS011;18022;45.492;11.548;2023-09-18T09:47:35;38.42;;;29.10;;
31390;SDS011;18022;45.492;11.548;2023-09-18T09:50:08;32.60;;;27.77;;
31390;SDS011;18022;45.492;11.548;2023-09-18T09:52:35;38.38;;;29.60;;
31390;SDS011;18022;45.492;11.548;2023-09-18T09:55:17;38.22;;;28.38;;
31390;SDS011;18022;45.492;11.548;2023-09-18T09:57:57;37.53;;;29.60;;
31390;SDS011;18022;45.492;11.548;2023-09-18T10:00:32;32.00;;;25.55;;
31390;SDS011;18022;45.492;11.548;2023-09-18T10:05:37;41.30;;;27.65;;
31390;SDS011;18022;45.492;11.548;2023-09-18T10:10:48;36.28;;;26.17;;
31390;SDS011;18022;45.492;11.548;2023-09-18T10:13:18;32.25;;;26.05;;
31390;SDS011;18022;45.492;11.548;2023-09-18T10:15:54;32.88;;;25.65;;
31390;SDS011;18022;45.492;11.548;2023-09-18T10:21:44;38.92;;;27.98;;
31390;SDS011;18022;45.492;11.548;2023-09-18T10:23:59;32.67;;;26.17;;
31390;SDS011;18022;45.492;11.548;2023-09-18T10:26:39;34.75;;;25.48;;
31390;SDS011;18022;45.492;11.548;2023-09-18T10:29:13;32.25;;;24.98;;
31390;SDS011;18022;45.492;11.548;2023-09-18T10:31:40;29.55;;;24.70;;
31390;SDS011;18022;45.492;11.548;2023-09-18T10:34:08;29.70;;;24.77;;
31390;SDS011;18022;45.492;11.548;2023-09-18T10:36:34;32.35;;;24.27;;
31390;SDS011;18022;45.492;11.548;2023-09-18T10:39:02;32.15;;;23.88;;
31390;SDS011;18022;45.492;11.548;2023-09-18T10:41:33;30.90;;;24.90;;
31390;SDS011;18022;45.492;11.548;2023-09-18T10:44:00;30.53;;;24.47;;
31390;SDS011;18022;45.492;11.548;2023-09-18T10:46:29;29.15;;;23.88;;
31390;SDS011;18022;45.492;11.548;2023-09-18T10:48:55;32.85;;;24.35;;
31390;SDS011;18022;45.492;11.548;2023-09-18T10:51:21;27.73;;;23.70;;
31390;SDS011;18022;45.492;11.548;2023-09-18T10:53:48;27.65;;;23.27;;
31390;SDS011;18022;45.492;11.548;2023-09-18T10:56:14;32.22;;;25.02;;
31390;SDS011;18022;45.492;11.548;2023-09-18T10:58:43;28.77;;;23.50;;
31390;SDS011;18022;45.492;11.548;2023-09-18T11:01:13;30.02;;;23.25;;
31390;SDS011;18022;45.492;11.548;2023-09-18T11:03:39;26.50;;;22.42;;
31390;SDS011;18022;45.492;11.548;2023-09-18T11:06:07;29.67;;;23.08;;
31390;SDS011;18022;45.492;11.548;2023-09-18T11:08:46;31.92;;;22.98;;
31390;SDS011;18022;45.492;11.548;2023-09-18T11:11:14;30.13;;;23.08;;
31390;SDS011;18022;45.492;11.548;2023-09-18T11:13:48;27.80;;;23.13;;
31390;SDS011;18022;45.492;11.548;2023-09-18T11:21:26;25.85;;;21.85;;
31390;SDS011;18022;45.492;11.548;2023-09-18T11:24:02;22.15;;;19.38;;
31390;SDS011;18022;45.492;11.548;2023-09-18T11:26:32;23.98;;;19.30;;
31390;SDS011;18022;45.492;11.548;2023-09-18T11:36:49;24.88;;;18.50;;
31390;SDS011;18022;45.492;11.548;2023-09-18T11:42:09;30.80;;;17.58;;
31390;SDS011;18022;45.492;11.548;2023-09-18T11:44:36;29.58;;;19.73;;
31390;SDS011;18022;45.492;11.548;2023-09-18T11:47:09;22.50;;;20.20;;
31390;SDS011;18022;45.492;11.548;2023-09-18T11:49:57;26.92;;;19.58;;
31390;SDS011;18022;45.492;11.548;2023-09-18T11:52:24;20.80;;;18.45;;
31390;SDS011;18022;45.492;11.548;2023-09-18T11:54:51;20.83;;;18.17;;
31390;SDS011;18022;45.492;11.548;2023-09-18T11:57:19;20.67;;;17.73;;
31390;SDS011;18022;45.492;11.548;2023-09-18T11:59:46;28.08;;;16.88;;
31390;SDS011;18022;45.492;11.548;2023-09-18T12:02:12;20.08;;;17.30;;
31390;SDS011;18022;45.492;11.548;2023-09-18T12:04:46;25.05;;;18.65;;
31390;SDS011;18022;45.492;11.548;2023-09-18T12:07:13;21.52;;;19.23;;
31390;SDS011;18022;45.492;11.548;2023-09-18T12:09:39;21.00;;;17.30;;
31390;SDS011;18022;45.492;11.548;2023-09-18T12:12:05;19.85;;;16.17;;
31390;SDS011;18022;45.492;11.548;2023-09-18T12:14:32;19.08;;;17.05;;
31390;SDS011;18022;45.492;11.548;2023-09-18T12:16:59;20.48;;;16.17;;
31390;SDS011;18022;45.492;11.548;2023-09-18T12:19:27;19.88;;;15.25;;
31390;SDS011;18022;45.492;11.548;2023-09-18T12:21:53;21.48;;;15.90;;
31390;SDS011;18022;45.492;11.548;2023-09-18T12:24:25;19.23;;;15.18;;
31390;SDS011;18022;45.492;11.548;2023-09-18T12:26:52;21.00;;;17.48;;
31390;SDS011;18022;45.492;11.548;2023-09-18T12:29:19;21.23;;;16.20;;
31390;SDS011;18022;45.492;11.548;2023-09-18T12:31:46;16.92;;;15.13;;
31390;SDS011;18022;45.492;11.548;2023-09-18T12:34:15;16.67;;;14.45;;
31390;SDS011;18022;45.492;11.548;2023-09-18T12:36:49;19.15;;;13.85;;
31390;SDS011;18022;45.492;11.548;2023-09-18T12:39:16;20.70;;;15.63;;
31390;SDS011;18022;45.492;11.548;2023-09-18T12:41:46;16.33;;;14.15;;
31390;SDS011;18022;45.492;11.548;2023-09-18T12:44:12;16.50;;;13.52;;
31390;SDS011;18022;45.492;11.548;2023-09-18T12:46:42;15.93;;;14.27;;
31390;SDS011;18022;45.492;11.548;2023-09-18T12:49:42;17.50;;;14.18;;
31390;SDS011;18022;45.492;11.548;2023-09-18T12:52:01;26.52;;;15.55;;
31390;SDS011;18022;45.492;11.548;2023-09-18T12:57:04;15.77;;;14.07;;
31390;SDS011;18022;45.492;11.548;2023-09-18T12:59:31;20.60;;;15.70;;
31390;SDS011;18022;45.492;11.548;2023-09-18T13:01:58;17.02;;;14.68;;
31390;SDS011;18022;45.492;11.548;2023-09-18T13:04:24;17.00;;;15.30;;
31390;SDS011;18022;45.492;11.548;2023-09-18T13:07:03;17.15;;;13.38;;
31390;SDS011;18022;45.492;11.548;2023-09-18T13:09:33;18.45;;;13.88;;
31390;SDS011;18022;45.492;11.548;2023-09-18T13:12:00;16.95;;;13.57;;
31390;SDS011;18022;45.492;11.548;2023-09-18T13:14:26;20.55;;;15.13;;
31390;SDS011;18022;45.492;11.548;2023-09-18T13:16:52;16.90;;;14.48;;
31390;SDS011;18022;45.492;11.548;2023-09-18T13:19:18;19.42;;;13.15;;
31390;SDS011;18022;45.492;11.548;2023-09-18T13:21:47;16.05;;;13.13;;
31390;SDS011;18022;45.492;11.548;2023-09-18T13:24:27;18.23;;;14.25;;
31390;SDS011;18022;45.492;11.548;2023-09-18T13:26:53;16.67;;;13.63;;
31390;SDS011;18022;45.492;11.548;2023-09-18T13:29:20;15.90;;;12.60;;
31390;SDS011;18022;45.492;11.548;2023-09-18T13:31:46;14.23;;;12.73;;
31390;SDS011;18022;45.492;11.548;2023-09-18T13:34:12;14.98;;;12.00;;
31390;SDS011;18022;45.492;11.548;2023-09-18T13:36:38;14.68;;;12.10;;
31390;SDS011;18022;45.492;11.548;2023-09-18T13:39:04;17.08;;;12.90;;
31390;SDS011;18022;45.492;11.548;2023-09-18T13:41:29;17.63;;;14.40;;
31390;SDS011;18022;45.492;11.548;2023-09-18T13:43:56;17.52;;;12.95;;
31390;SDS011;18022;45.492;11.548;2023-09-18T13:46:22;15.82;;;12.63;;
31390;SDS011;18022;45.492;11.548;2023-09-18T13:48:48;14.05;;;12.60;;
31390;SDS011;18022;45.492;11.548;2023-09-18T13:51:14;17.10;;;13.20;;
31390;SDS011;18022;45.492;11.548;2023-09-18T13:53:40;14.93;;;12.98;;
31390;SDS011;18022;45.492;11.548;2023-09-18T13:56:06;18.85;;;13.18;;
31390;SDS011;18022;45.492;11.548;2023-09-18T13:58:32;19.95;;;13.75;;
31390;SDS011;18022;45.492;11.548;2023-09-18T14:00:58;16.58;;;13.25;;
31390;SDS011;18022;45.492;11.548;2023-09-18T14:03:24;19.92;;;12.98;;
31390;SDS011;18022;45.492;11.548;2023-09-18T14:05:50;15.02;;;12.68;;
31390;SDS011;18022;45.492;11.548;2023-09-18T14:08:17;16.67;;;13.73;;
31390;SDS011;18022;45.492;11.548;2023-09-18T14:10:43;17.50;;;12.82;;
31390;SDS011;18022;45.492;11.548;2023-09-18T14:13:09;19.20;;;14.57;;
31390;SDS011;18022;45.492;11.548;2023-09-18T14:15:35;17.42;;;13.82;;
31390;SDS011;18022;45.492;11.548;2023-09-18T14:18:02;16.27;;;14.35;;
31390;SDS011;18022;45.492;11.548;2023-09-18T14:20:28;18.13;;;13.27;;
31390;SDS011;18022;45.492;11.548;2023-09-18T14:22:54;21.30;;;13.93;;
31390;SDS011;18022;45.492;11.548;2023-09-18T14:25:20;16.08;;;13.05;;
31390;SDS011;18022;45.492;11.548;2023-09-18T14:27:47;15.68;;;13.48;;
31390;SDS011;18022;45.492;11.548;2023-09-18T14:30:13;16.20;;;14.13;;
31390;SDS011;18022;45.492;11.548;2023-09-18T14:32:39;16.10;;;13.63;;
31390;SDS011;18022;45.492;11.548;2023-09-18T14:35:05;16.90;;;13.23;;
31390;SDS011;18022;45.492;11.548;2023-09-18T14:37:33;21.67;;;14.02;;
31390;SDS011;18022;45.492;11.548;2023-09-18T14:40:00;19.20;;;14.50;;
31390;SDS011;18022;45.492;11.548;2023-09-18T14:42:25;19.10;;;14.25;;
31390;SDS011;18022;45.492;11.548;2023-09-18T14:44:51;18.70;;;14.00;;
31390;SDS011;18022;45.492;11.548;2023-09-18T14:47:17;16.95;;;13.13;;
31390;SDS011;18022;45.492;11.548;2023-09-18T14:49:43;16.20;;;14.23;;